createdAt,value
2023-02-06T00:01:13.230Z,26.87
2023-02-06T00:03:40.066Z,35.43
2023-02-06T00:06:07.314Z,27.53
2023-02-06T00:08:34.720Z,33.67
2023-02-06T00:11:07.485Z,28.70
2023-02-06T00:13:35.616Z,23.67
2023-02-06T00:16:03.012Z,28.30
2023-02-06T00:23:23.314Z,23.75
2023-02-06T00:25:50.054Z,21.53
2023-02-06T00:28:17.008Z,37.80
2023-02-06T00:30:47.272Z,36.73
2023-02-06T00:33:14.346Z,45.33
2023-02-06T00:35:41.270Z,35.73
2023-02-06T00:38:10.592Z,43.07
2023-02-06T00:40:37.908Z,32.63
2023-02-06T00:43:05.096Z,51.63
2023-02-06T00:45:31.882Z,46.97
2023-02-06T00:47:58.707Z,38.60
2023-02-06T00:50:25.497Z,37.63
2023-02-06T00:52:52.331Z,37.17
2023-02-06T00:55:19.141Z,13.10
2023-02-06T00:57:45.944Z,45.03
2023-02-06T01:00:14.974Z,42.23
2023-02-06T01:02:41.856Z,29.83
2023-02-06T01:05:09.337Z,44.03
2023-02-06T01:07:40.046Z,31.00
2023-02-06T01:10:09.031Z,24.73
2023-02-06T01:12:36.860Z,53.07
2023-02-06T01:15:09.847Z,27.13
2023-02-06T01:17:37.734Z,28.65
2023-02-06T01:20:06.766Z,34.10
2023-02-06T01:22:35.363Z,37.20
2023-02-06T01:25:02.266Z,40.00
2023-02-06T01:27:29.082Z,32.77
2023-02-06T01:29:58.026Z,28.90
2023-02-06T01:32:24.831Z,32.47
2023-02-06T01:34:51.681Z,22.77
2023-02-06T01:37:18.436Z,27.83
2023-02-06T01:39:45.336Z,40.67
2023-02-06T01:42:13.140Z,24.13
2023-02-06T01:44:39.973Z,25.30
2023-02-06T01:47:06.785Z,40.40
2023-02-06T01:49:41.760Z,54.80
2023-02-06T01:52:21.248Z,31.93
2023-02-06T01:55:01.053Z,28.23
2023-02-06T01:57:29.078Z,36.83
2023-02-06T02:00:01.723Z,35.60
2023-02-06T02:02:43.056Z,25.47
2023-02-06T02:05:11.047Z,30.10
2023-02-06T02:07:44.315Z,39.03
2023-02-06T02:10:11.326Z,28.52
2023-02-06T02:12:38.092Z,41.47
2023-02-06T02:15:05.192Z,37.20
2023-02-06T02:17:52.194Z,37.93
2023-02-06T02:20:37.144Z,22.60
2023-02-06T02:23:22.744Z,35.77
2023-02-06T02:26:18.397Z,35.90
2023-02-06T02:28:59.958Z,51.60
2023-02-06T02:31:48.627Z,28.60
2023-02-06T02:34:36.606Z,40.77
2023-02-06T02:37:08.850Z,43.97
2023-02-06T02:39:48.365Z,30.27
2023-02-06T02:42:23.948Z,37.93
2023-02-06T02:44:57.870Z,34.60
2023-02-06T02:47:28.639Z,34.60
2023-02-06T02:49:57.082Z,43.17
2023-02-06T02:52:24.334Z,48.57
2023-02-06T02:54:51.555Z,19.40
2023-02-06T02:57:22.992Z,40.87
2023-02-06T02:59:50.888Z,44.47
2023-02-06T03:02:18.329Z,15.43
2023-02-06T03:04:54.366Z,30.17
2023-02-06T03:07:41.238Z,36.07
2023-02-06T03:10:28.432Z,26.57
2023-02-06T03:13:04.213Z,36.50
2023-02-06T03:15:44.564Z,40.93
2023-02-06T03:18:47.619Z,30.80
2023-02-06T03:21:17.765Z,32.75
2023-02-06T03:23:46.871Z,33.93
2023-02-06T03:26:15.757Z,29.70
2023-02-06T03:28:45.111Z,50.57
2023-02-06T03:31:14.137Z,41.23
2023-02-06T03:33:45.917Z,29.20
2023-02-06T03:36:17.150Z,38.33
2023-02-06T03:38:48.479Z,32.77
2023-02-06T03:41:16.744Z,26.73
2023-02-06T03:43:46.668Z,24.60
2023-02-06T03:46:15.393Z,32.70
2023-02-06T03:48:44.148Z,41.47
2023-02-06T03:51:18.292Z,46.87
2023-02-06T03:53:46.583Z,45.27
2023-02-06T03:56:16.682Z,39.73
2023-02-06T03:58:46.139Z,38.97
2023-02-06T04:01:13.994Z,57.57
2023-02-06T04:03:41.673Z,52.63
2023-02-06T04:35:35.898Z,36.47
2023-02-06T04:38:03.266Z,58.57
2023-02-06T04:40:30.528Z,41.77
2023-02-06T04:42:58.473Z,31.90
2023-02-06T04:45:25.774Z,61.00
2023-02-06T04:47:53.096Z,53.87
2023-02-06T04:50:20.317Z,39.67
2023-02-06T04:52:47.563Z,46.87
2023-02-06T04:55:14.801Z,55.57
2023-02-06T04:57:42.105Z,39.10
2023-02-06T05:00:10.379Z,39.03
2023-02-06T05:02:39.740Z,59.23
2023-02-06T05:05:07.902Z,27.37
2023-02-06T05:07:35.364Z,39.13
2023-02-06T05:10:03.061Z,24.97
2023-02-06T05:12:30.312Z,45.70
2023-02-06T05:14:57.496Z,43.53
2023-02-06T05:17:24.691Z,20.40
2023-02-06T05:19:51.937Z,43.37
2023-02-06T05:22:19.127Z,49.97
2023-02-06T05:24:46.332Z,35.17
2023-02-06T05:27:13.529Z,23.80
2023-02-06T05:29:40.743Z,19.70
2023-02-06T05:32:07.915Z,22.83
2023-02-06T05:34:35.102Z,23.33
2023-02-06T05:37:02.313Z,17.10
2023-02-06T05:39:29.601Z,25.20
2023-02-06T05:41:56.863Z,28.83
2023-02-06T05:44:24.058Z,14.73
2023-02-06T05:46:51.236Z,30.23
2023-02-06T05:49:18.466Z,24.17
2023-02-06T05:51:45.724Z,16.70
2023-02-06T05:54:13.234Z,21.50
2023-02-06T05:56:40.452Z,16.50
2023-02-06T05:59:07.647Z,28.50
2023-02-06T06:01:34.822Z,17.73
2023-02-06T06:04:02.298Z,13.73
2023-02-06T06:06:29.610Z,20.83
2023-02-06T06:08:56.868Z,21.07
2023-02-06T06:11:24.618Z,23.60
2023-02-06T06:13:51.808Z,31.77
2023-02-06T06:16:19.032Z,14.03
2023-02-06T06:18:46.267Z,26.53
2023-02-06T06:23:40.568Z,14.73
2023-02-06T06:26:07.799Z,14.83
2023-02-06T06:28:36.092Z,18.37
2023-02-06T06:31:04.216Z,22.60
2023-02-06T06:33:31.642Z,21.67
2023-02-06T06:35:59.080Z,40.93
2023-02-06T06:38:26.337Z,37.63
2023-02-06T06:40:53.578Z,27.93
2023-02-06T06:43:20.841Z,17.63
2023-02-06T06:45:48.126Z,21.07
2023-02-06T06:48:15.373Z,22.50
2023-02-06T06:50:42.621Z,21.97
2023-02-06T06:53:09.876Z,23.37
2023-02-06T06:55:37.337Z,25.37
2023-02-06T06:58:04.782Z,19.27
2023-02-06T07:00:31.985Z,30.23
2023-02-06T07:02:59.248Z,11.57
2023-02-06T07:05:26.635Z,34.93
2023-02-06T07:07:53.890Z,24.27
2023-02-06T07:10:21.228Z,24.97
2023-02-06T07:12:48.566Z,25.57
2023-02-06T07:15:15.791Z,24.93
2023-02-06T07:17:43.010Z,14.97
2023-02-06T07:20:10.705Z,19.87
2023-02-06T07:22:38.150Z,13.47
2023-02-06T07:25:05.534Z,12.53
2023-02-06T07:27:32.839Z,15.73
2023-02-06T07:30:00.116Z,15.93
2023-02-06T07:32:27.650Z,16.73
2023-02-06T07:34:54.832Z,16.13
2023-02-06T07:37:22.035Z,17.67
2023-02-06T07:39:49.272Z,32.40
2023-02-06T07:42:16.461Z,22.87
2023-02-06T07:44:52.065Z,19.80
2023-02-06T07:47:19.277Z,15.47
2023-02-06T07:49:46.448Z,25.83
2023-02-06T07:52:14.364Z,38.50
2023-02-06T07:54:41.566Z,37.80
2023-02-06T07:57:08.764Z,20.43
2023-02-06T07:59:35.962Z,27.10
2023-02-06T08:02:03.310Z,26.27
2023-02-06T08:04:35.274Z,18.57
2023-02-06T08:07:03.529Z,16.57
2023-02-06T08:09:31.598Z,24.27
2023-02-06T08:11:58.788Z,36.57
2023-02-06T08:14:26.351Z,9.93
2023-02-06T08:16:53.646Z,10.73
2023-02-06T08:19:20.854Z,20.10
2023-02-06T08:21:48.212Z,24.90
2023-02-06T08:24:15.403Z,19.70
2023-02-06T08:26:43.923Z,22.83
2023-02-06T08:29:11.778Z,14.43
2023-02-06T08:31:40.040Z,16.23
2023-02-06T08:34:08.029Z,19.20
2023-02-06T08:36:35.391Z,29.20
2023-02-06T08:39:03.331Z,15.87
2023-02-06T08:41:31.857Z,22.55
2023-02-06T08:44:00.169Z,31.43
2023-02-06T08:46:28.893Z,19.13
2023-02-06T08:49:04.862Z,20.17
2023-02-06T08:51:33.038Z,17.53
2023-02-06T08:54:01.527Z,33.75
2023-02-06T08:58:56.312Z,31.13
2023-02-06T09:01:23.524Z,36.27
2023-02-06T09:03:50.878Z,29.00
2023-02-06T09:06:18.057Z,15.20
2023-02-06T09:08:45.265Z,20.97
2023-02-06T09:11:15.617Z,23.80
2023-02-06T09:13:43.768Z,23.77
2023-02-06T09:16:12.075Z,21.27
2023-02-06T09:18:39.764Z,25.10
2023-02-06T09:21:10.136Z,25.20
2023-02-06T09:23:37.668Z,13.33
2023-02-06T09:26:05.003Z,19.10
2023-02-06T09:28:32.735Z,15.57
2023-02-06T09:31:00.124Z,24.57
2023-02-06T09:33:27.518Z,33.13
2023-02-06T09:36:08.437Z,19.23
2023-02-06T09:38:36.441Z,25.57
2023-02-06T09:41:05.309Z,28.57
2023-02-06T09:43:33.765Z,21.50
2023-02-06T09:46:03.319Z,32.47
2023-02-06T09:48:33.088Z,27.70
2023-02-06T09:51:08.995Z,38.20
2023-02-06T10:06:10.700Z,93.40
2023-02-06T10:08:39.897Z,86.37
2023-02-06T10:11:11.604Z,87.83
2023-02-06T10:13:38.772Z,66.70
2023-02-06T10:16:07.713Z,83.93
2023-02-06T10:18:37.507Z,86.63
2023-02-06T10:21:20.303Z,76.03
2023-02-06T10:23:47.720Z,70.93
2023-02-06T10:26:19.774Z,73.13
2023-02-06T10:28:51.809Z,79.73
2023-02-06T10:31:25.055Z,84.67
2023-02-06T10:33:55.387Z,78.88
2023-02-06T10:46:28.372Z,70.33
2023-02-06T10:49:02.602Z,77.47
2023-02-06T10:51:35.228Z,71.97
2023-02-06T10:54:04.127Z,83.23
2023-02-06T10:56:34.806Z,84.90
2023-02-06T10:59:05.718Z,88.00
2023-02-06T11:23:42.213Z,82.95
2023-02-06T11:26:27.797Z,67.43
2023-02-06T11:28:55.137Z,66.70
2023-02-06T11:31:38.353Z,80.63
2023-02-06T11:34:05.910Z,59.20
2023-02-06T11:36:35.435Z,78.90
2023-02-06T11:39:21.292Z,81.07
2023-02-06T11:41:58.785Z,60.57
2023-02-06T11:44:26.811Z,72.60
2023-02-06T11:46:54.157Z,77.43
2023-02-06T11:49:31.735Z,75.10
2023-02-06T11:52:00.065Z,71.43
2023-02-06T11:54:28.657Z,88.87
2023-02-06T11:57:03.162Z,88.53
2023-02-06T11:59:33.920Z,76.93
2023-02-06T12:02:05.375Z,78.57
2023-02-06T12:04:38.076Z,118.57
2023-02-06T12:07:22.357Z,112.47
2023-02-06T12:17:31.357Z,78.83
2023-02-06T12:20:26.787Z,77.40
2023-02-06T12:27:49.039Z,81.60
2023-02-06T12:37:44.682Z,45.85
2023-02-06T12:40:30.685Z,51.93
2023-02-06T12:43:01.400Z,62.87
2023-02-06T12:45:31.730Z,50.17
2023-02-06T12:48:07.876Z,56.90
2023-02-06T12:50:40.596Z,49.23
2023-02-06T12:53:35.379Z,49.97
2023-02-06T12:56:06.758Z,39.17
2023-02-06T12:58:43.165Z,45.70
2023-02-06T13:01:34.707Z,28.45
2023-02-06T13:04:04.455Z,30.90
2023-02-06T13:06:37.728Z,37.77
2023-02-06T13:09:06.429Z,34.72
2023-02-06T13:11:39.094Z,36.23
2023-02-06T13:14:08.630Z,32.73
2023-02-06T13:16:40.150Z,26.77
2023-02-06T13:19:20.221Z,21.53
2023-02-06T13:22:05.974Z,19.57
2023-02-06T13:24:33.160Z,20.87
2023-02-06T13:27:03.336Z,35.57
2023-02-06T13:29:34.744Z,38.70
2023-02-06T13:32:20.039Z,22.60
2023-02-06T13:34:50.571Z,21.80
2023-02-06T13:39:47.817Z,32.70
2023-02-06T13:42:33.855Z,32.97
2023-02-06T13:45:02.038Z,31.70
2023-02-06T13:47:44.133Z,32.77
2023-02-06T13:50:29.843Z,91.97
2023-02-06T13:53:07.016Z,67.30
2023-02-06T13:55:38.915Z,46.53
2023-02-06T13:58:24.586Z,36.57
2023-02-06T14:28:00.160Z,26.10
2023-02-06T14:52:36.554Z,30.80
2023-02-06T14:55:22.448Z,43.27
2023-02-06T14:57:49.667Z,31.23
2023-02-06T15:00:21.192Z,137.60
2023-02-06T15:03:02.390Z,21.43
2023-02-06T15:05:31.772Z,32.03
2023-02-06T15:07:59.950Z,24.77
2023-02-06T15:10:29.237Z,22.77
2023-02-06T15:15:25.120Z,34.23
2023-02-06T15:18:00.195Z,39.90
2023-02-06T15:30:22.917Z,24.00
2023-02-06T15:35:23.417Z,13.87
2023-02-06T15:37:51.456Z,21.27
2023-02-06T15:45:20.414Z,34.83
2023-02-06T15:47:47.843Z,20.73
2023-02-06T15:50:20.145Z,37.47
2023-02-06T15:52:47.562Z,53.10
2023-02-06T15:55:32.142Z,48.70
2023-02-06T15:57:59.894Z,106.83
2023-02-06T16:00:32.084Z,54.43
2023-02-06T16:03:03.948Z,47.40
2023-02-06T16:05:32.542Z,28.23
2023-02-06T16:08:00.459Z,30.83
2023-02-06T16:10:29.686Z,38.07
2023-02-06T16:12:57.580Z,22.10
2023-02-06T16:15:40.622Z,32.77
2023-02-06T16:18:27.660Z,26.63
2023-02-06T16:21:11.542Z,10.33
2023-02-06T16:26:07.478Z,18.97
2023-02-06T16:28:40.459Z,29.23
2023-02-06T16:31:11.956Z,18.00
2023-02-06T16:33:40.165Z,23.17
2023-02-06T16:36:07.657Z,30.97
2023-02-06T16:38:34.949Z,20.87
2023-02-06T16:43:31.136Z,30.80
2023-02-06T17:25:19.745Z,33.60
2023-02-06T17:27:47.024Z,14.07
2023-02-06T17:30:18.380Z,29.37
2023-02-06T17:32:45.566Z,18.87
2023-02-06T17:35:12.837Z,33.00
2023-02-06T17:37:40.197Z,24.73
2023-02-06T17:40:07.921Z,37.13
2023-02-06T17:42:35.114Z,32.83
2023-02-06T17:45:02.379Z,25.53
2023-02-06T17:47:29.583Z,17.60
2023-02-06T17:49:56.791Z,31.03
2023-02-06T17:52:24.001Z,20.03
2023-02-06T17:54:51.359Z,28.03
2023-02-06T18:16:57.101Z,31.63
2023-02-06T18:19:25.289Z,20.07
2023-02-06T18:21:52.776Z,36.53
2023-02-06T18:24:19.964Z,27.83
2023-02-06T18:26:47.239Z,37.97
2023-02-06T18:29:14.454Z,15.87
2023-02-06T18:31:41.700Z,30.63
2023-02-06T18:34:09.047Z,27.23
2023-02-06T18:36:36.979Z,28.03
2023-02-06T18:39:05.372Z,16.93
2023-02-06T18:41:51.863Z,21.03
2023-02-06T18:44:19.046Z,19.90
2023-02-06T18:46:46.307Z,27.97
2023-02-06T18:49:13.606Z,31.37
2023-02-06T18:51:40.775Z,18.73
2023-02-06T18:54:08.045Z,23.20
2023-02-06T18:56:35.339Z,31.63
2023-02-06T18:59:03.981Z,21.53
2023-02-06T19:01:31.326Z,22.17
2023-02-06T19:03:59.247Z,20.93
2023-02-06T19:06:34.031Z,32.03
2023-02-06T19:09:01.272Z,50.73
2023-02-06T19:11:28.543Z,36.83
2023-02-06T19:13:55.814Z,45.03
2023-02-06T19:16:23.216Z,41.00
2023-02-06T19:18:50.644Z,31.60
2023-02-06T19:21:19.318Z,37.03
2023-02-06T19:23:47.325Z,31.40
2023-02-06T19:26:15.755Z,21.57
2023-02-06T19:28:43.267Z,32.33
2023-02-06T19:31:10.933Z,31.03
2023-02-06T19:33:39.288Z,25.43
2023-02-06T19:36:14.192Z,30.40
2023-02-06T19:38:44.789Z,23.47
2023-02-06T19:41:13.760Z,33.37
2023-02-06T19:43:41.204Z,34.13
2023-02-06T19:46:11.799Z,29.53
2023-02-06T19:48:42.118Z,24.70
2023-02-06T19:51:10.815Z,25.40
2023-02-06T19:53:45.146Z,20.37
2023-02-06T19:56:13.298Z,58.00
2023-02-06T19:58:43.132Z,54.37
2023-02-06T20:01:11.460Z,30.63
2023-02-06T20:03:39.179Z,23.43
2023-02-06T20:06:08.036Z,70.77
2023-02-06T20:08:35.502Z,33.47
2023-02-06T20:11:06.685Z,32.77
2023-02-06T20:13:34.209Z,45.93
2023-02-06T20:16:03.631Z,49.87
2023-02-06T20:18:35.020Z,128.20
2023-02-06T20:21:02.673Z,38.43
2023-02-06T20:23:30.216Z,32.27
2023-02-06T20:25:57.761Z,27.10
2023-02-06T20:28:25.061Z,41.25
2023-02-06T20:30:52.404Z,27.03
2023-02-06T20:33:19.687Z,21.90
2023-02-06T20:52:59.759Z,23.10
2023-02-06T20:57:56.801Z,27.10
2023-02-06T21:00:24.040Z,25.90
2023-02-06T21:07:47.706Z,77.43
2023-02-06T21:10:15.172Z,105.37
2023-02-06T21:12:42.387Z,47.00
2023-02-06T21:15:09.886Z,49.73
2023-02-06T21:17:37.057Z,44.13
2023-02-06T21:20:05.734Z,40.20
2023-02-06T21:22:33.263Z,35.07
2023-02-06T21:25:00.538Z,42.17
2023-02-06T21:27:29.290Z,44.93
2023-02-06T21:29:56.489Z,43.27
2023-02-06T21:32:23.695Z,35.70
2023-02-06T21:34:50.903Z,43.73
2023-02-06T21:37:18.434Z,36.73
2023-02-06T21:39:45.667Z,28.33
2023-02-06T21:42:12.913Z,35.83
2023-02-06T21:44:40.129Z,39.43
2023-02-06T21:47:09.834Z,30.77
2023-02-06T21:49:37.124Z,34.97
2023-02-06T21:52:04.521Z,29.07
2023-02-06T21:54:31.829Z,40.83
2023-02-06T21:56:59.109Z,43.23
2023-02-06T21:59:26.351Z,39.50
2023-02-06T22:01:54.249Z,32.70
2023-02-06T22:04:21.604Z,46.70
2023-02-06T22:06:49.144Z,32.33
2023-02-06T22:09:18.814Z,26.97
2023-02-06T22:11:46.134Z,30.80
2023-02-06T22:14:14.421Z,35.80
2023-02-06T22:16:41.868Z,35.60
2023-02-06T22:19:09.272Z,47.37
2023-02-06T22:21:36.491Z,41.17
2023-02-06T22:24:06.865Z,53.10
2023-02-06T22:26:36.849Z,46.47
2023-02-06T22:29:04.153Z,42.97
2023-02-06T22:31:32.605Z,40.30
2023-02-06T22:34:00.631Z,57.53
2023-02-06T22:36:29.525Z,42.80
2023-02-06T22:38:58.212Z,37.93
2023-02-06T22:41:25.435Z,39.10
2023-02-06T22:43:52.983Z,50.83
2023-02-06T22:46:22.228Z,41.53
2023-02-06T22:48:49.843Z,33.63
2023-02-06T22:51:17.147Z,57.33
2023-02-06T22:53:44.513Z,35.60
2023-02-06T22:56:32.387Z,42.93
2023-02-06T23:57:55.260Z,42.67
